sensor_id;sensor_type;location;lat;lon;timestamp;P1;durP1;ratioP1;P2;durP2;ratioP2
63959;SDS011;50136;51.374;0.096;2023-02-03T00:01:08;7.47;;;1.02;;
63959;SDS011;50136;51.374;0.096;2023-02-03T00:11:10;1.88;;;0.85;;
63959;SDS011;50136;51.374;0.096;2023-02-03T00:21:14;2.00;;;0.88;;
63959;SDS011;50136;51.374;0.096;2023-02-03T00:31:16;2.88;;;1.00;;
63959;SDS011;50136;51.374;0.096;2023-02-03T00:41:20;3.05;;;1.10;;
63959;SDS011;50136;51.374;0.096;2023-02-03T00:51:22;4.30;;;1.13;;
63959;SDS011;50136;51.374;0.096;2023-02-03T01:01:26;4.97;;;1.30;;
63959;SDS011;50136;51.374;0.096;2023-02-03T01:11:28;6.80;;;1.65;;
63959;SDS011;50136;51.374;0.096;2023-02-03T01:21:31;4.13;;;0.98;;
63959;SDS011;50136;51.374;0.096;2023-02-03T01:31:34;4.07;;;1.02;;
63959;SDS011;50136;51.374;0.096;2023-02-03T01:41:39;7.28;;;1.85;;
63959;SDS011;50136;51.374;0.096;2023-02-03T01:51:41;7.15;;;1.20;;
63959;SDS011;50136;51.374;0.096;2023-02-03T02:01:46;5.60;;;1.30;;
63959;SDS011;50136;51.374;0.096;2023-02-03T02:11:49;9.25;;;1.52;;
63959;SDS011;50136;51.374;0.096;2023-02-03T02:32:18;3.10;;;1.40;;
63959;SDS011;50136;51.374;0.096;2023-02-03T02:42:31;4.38;;;1.05;;
63959;SDS011;50136;51.374;0.096;2023-02-03T02:52:40;2.63;;;0.90;;
63959;SDS011;50136;51.374;0.096;2023-02-03T03:02:45;2.05;;;0.80;;
63959;SDS011;50136;51.374;0.096;2023-02-03T03:12:49;4.32;;;1.00;;
63959;SDS011;50136;51.374;0.096;2023-02-03T03:22:58;3.40;;;0.70;;
63959;SDS011;50136;51.374;0.096;2023-02-03T03:33:04;1.75;;;0.82;;
63959;SDS011;50136;51.374;0.096;2023-02-03T03:43:09;1.13;;;0.68;;
63959;SDS011;50136;51.374;0.096;2023-02-03T03:53:16;4.22;;;1.05;;
63959;SDS011;50136;51.374;0.096;2023-02-03T04:03:21;2.22;;;0.80;;
63959;SDS011;50136;51.374;0.096;2023-02-03T04:13:26;6.75;;;1.42;;
63959;SDS011;50136;51.374;0.096;2023-02-03T04:23:28;2.55;;;1.13;;
63959;SDS011;50136;51.374;0.096;2023-02-03T04:33:31;5.97;;;1.10;;
63959;SDS011;50136;51.374;0.096;2023-02-03T04:43:33;2.65;;;0.98;;
63959;SDS011;50136;51.374;0.096;2023-02-03T04:53:37;4.18;;;1.13;;
63959;SDS011;50136;51.374;0.096;2023-02-03T05:03:39;4.38;;;1.30;;
63959;SDS011;50136;51.374;0.096;2023-02-03T05:13:42;4.13;;;1.40;;
63959;SDS011;50136;51.374;0.096;2023-02-03T05:23:44;4.88;;;1.52;;
63959;SDS011;50136;51.374;0.096;2023-02-03T05:33:47;4.53;;;1.13;;
63959;SDS011;50136;51.374;0.096;2023-02-03T05:43:49;9.70;;;1.50;;
63959;SDS011;50136;51.374;0.096;2023-02-03T05:53:53;12.80;;;1.55;;
63959;SDS011;50136;51.374;0.096;2023-02-03T06:03:55;3.17;;;1.20;;
63959;SDS011;50136;51.374;0.096;2023-02-03T06:13:59;3.22;;;1.08;;
63959;SDS011;50136;51.374;0.096;2023-02-03T06:24:01;4.47;;;1.05;;
63959;SDS011;50136;51.374;0.096;2023-02-03T06:34:05;5.53;;;1.00;;
63959;SDS011;50136;51.374;0.096;2023-02-03T06:44:07;6.68;;;1.27;;
63959;SDS011;50136;51.374;0.096;2023-02-03T06:54:10;5.75;;;1.27;;
63959;SDS011;50136;51.374;0.096;2023-02-03T07:04:13;5.05;;;1.05;;
63959;SDS011;50136;51.374;0.096;2023-02-03T07:14:16;3.80;;;1.25;;
63959;SDS011;50136;51.374;0.096;2023-02-03T07:24:18;5.90;;;1.35;;
63959;SDS011;50136;51.374;0.096;2023-02-03T07:34:21;8.88;;;2.58;;
63959;SDS011;50136;51.374;0.096;2023-02-03T07:44:23;3.42;;;1.10;;
63959;SDS011;50136;51.374;0.096;2023-02-03T07:54:27;8.73;;;3.25;;
63959;SDS011;50136;51.374;0.096;2023-02-03T08:04:29;7.07;;;1.65;;
63959;SDS011;50136;51.374;0.096;2023-02-03T08:14:32;5.60;;;1.20;;
63959;SDS011;50136;51.374;0.096;2023-02-03T08:24:34;7.93;;;1.55;;
63959;SDS011;50136;51.374;0.096;2023-02-03T08:34:37;7.03;;;1.33;;
63959;SDS011;50136;51.374;0.096;2023-02-03T08:44:39;8.10;;;1.52;;
63959;SDS011;50136;51.374;0.096;2023-02-03T08:54:43;3.00;;;1.45;;
63959;SDS011;50136;51.374;0.096;2023-02-03T09:04:45;2.85;;;1.25;;
63959;SDS011;50136;51.374;0.096;2023-02-03T09:14:48;5.50;;;1.25;;
63959;SDS011;50136;51.374;0.096;2023-02-03T09:24:50;4.60;;;1.73;;
63959;SDS011;50136;51.374;0.096;2023-02-03T09:34:54;5.95;;;1.65;;
63959;SDS011;50136;51.374;0.096;2023-02-03T09:44:59;5.55;;;1.63;;
63959;SDS011;50136;51.374;0.096;2023-02-03T09:55:10;7.38;;;2.03;;
63959;SDS011;50136;51.374;0.096;2023-02-03T10:05:30;3.85;;;1.58;;
63959;SDS011;50136;51.374;0.096;2023-02-03T10:15:58;8.15;;;1.92;;
63959;SDS011;50136;51.374;0.096;2023-02-03T10:26:19;7.07;;;1.98;;
63959;SDS011;50136;51.374;0.096;2023-02-03T10:36:30;5.70;;;1.88;;
63959;SDS011;50136;51.374;0.096;2023-02-03T10:46:40;12.57;;;2.08;;
63959;SDS011;50136;51.374;0.096;2023-02-03T10:56:46;9.45;;;2.10;;
63959;SDS011;50136;51.374;0.096;2023-02-03T11:06:52;10.32;;;2.92;;
63959;SDS011;50136;51.374;0.096;2023-02-03T11:16:57;10.85;;;2.97;;
63959;SDS011;50136;51.374;0.096;2023-02-03T11:27:08;10.32;;;2.85;;
63959;SDS011;50136;51.374;0.096;2023-02-03T11:37:26;8.85;;;2.72;;
63959;SDS011;50136;51.374;0.096;2023-02-03T11:47:31;8.93;;;2.33;;
63959;SDS011;50136;51.374;0.096;2023-02-03T11:57:37;8.32;;;2.20;;
63959;SDS011;50136;51.374;0.096;2023-02-03T12:07:49;10.02;;;1.80;;
63959;SDS011;50136;51.374;0.096;2023-02-03T12:18:03;4.82;;;2.22;;
63959;SDS011;50136;51.374;0.096;2023-02-03T12:28:16;9.57;;;1.80;;
63959;SDS011;50136;51.374;0.096;2023-02-03T12:38:37;10.23;;;2.10;;
63959;SDS011;50136;51.374;0.096;2023-02-03T12:48:45;12.30;;;2.83;;
63959;SDS011;50136;51.374;0.096;2023-02-03T12:58:54;9.15;;;2.15;;
63959;SDS011;50136;51.374;0.096;2023-02-03T13:09:00;12.70;;;3.97;;
63959;SDS011;50136;51.374;0.096;2023-02-03T13:19:23;6.97;;;2.17;;
63959;SDS011;50136;51.374;0.096;2023-02-03T13:29:35;10.35;;;1.90;;
63959;SDS011;50136;51.374;0.096;2023-02-03T13:50:19;11.27;;;2.28;;
63959;SDS011;50136;51.374;0.096;2023-02-03T14:21:41;10.38;;;3.75;;
63959;SDS011;50136;51.374;0.096;2023-02-03T14:31:52;10.83;;;2.33;;
63959;SDS011;50136;51.374;0.096;2023-02-03T14:41:58;5.78;;;2.75;;
63959;SDS011;50136;51.374;0.096;2023-02-03T14:52:12;9.82;;;3.78;;
63959;SDS011;50136;51.374;0.096;2023-02-03T15:02:24;5.93;;;2.28;;
63959;SDS011;50136;51.374;0.096;2023-02-03T15:12:33;5.13;;;2.20;;
63959;SDS011;50136;51.374;0.096;2023-02-03T15:22:37;7.78;;;2.58;;
63959;SDS011;50136;51.374;0.096;2023-02-03T15:32:40;6.20;;;2.42;;
63959;SDS011;50136;51.374;0.096;2023-02-03T15:42:51;9.88;;;3.08;;
63959;SDS011;50136;51.374;0.096;2023-02-03T15:52:57;8.25;;;2.65;;
63959;SDS011;50136;51.374;0.096;2023-02-03T16:03:12;11.38;;;3.97;;
63959;SDS011;50136;51.374;0.096;2023-02-03T16:13:18;7.05;;;2.25;;
63959;SDS011;50136;51.374;0.096;2023-02-03T16:23:24;7.10;;;2.13;;
63959;SDS011;50136;51.374;0.096;2023-02-03T16:33:30;5.32;;;2.63;;
63959;SDS011;50136;51.374;0.096;2023-02-03T16:43:34;8.93;;;2.83;;
63959;SDS011;50136;51.374;0.096;2023-02-03T16:53:36;13.75;;;3.40;;
63959;SDS011;50136;51.374;0.096;2023-02-03T17:03:39;9.45;;;3.50;;
63959;SDS011;50136;51.374;0.096;2023-02-03T17:13:41;7.03;;;3.55;;
63959;SDS011;50136;51.374;0.096;2023-02-03T17:23:44;6.25;;;3.45;;
63959;SDS011;50136;51.374;0.096;2023-02-03T17:33:49;10.75;;;2.85;;
63959;SDS011;50136;51.374;0.096;2023-02-03T17:43:57;10.43;;;2.97;;
63959;SDS011;50136;51.374;0.096;2023-02-03T17:54:17;11.02;;;4.00;;
63959;SDS011;50136;51.374;0.096;2023-02-03T18:04:21;5.40;;;2.72;;
63959;SDS011;50136;51.374;0.096;2023-02-03T18:14:23;11.52;;;3.38;;
63959;SDS011;50136;51.374;0.096;2023-02-03T18:35:08;16.67;;;2.92;;
63959;SDS011;50136;51.374;0.096;2023-02-03T18:45:10;9.20;;;3.25;;
63959;SDS011;50136;51.374;0.096;2023-02-03T18:55:14;6.28;;;2.97;;
63959;SDS011;50136;51.374;0.096;2023-02-03T19:05:16;13.02;;;4.25;;
63959;SDS011;50136;51.374;0.096;2023-02-03T19:15:19;6.43;;;2.55;;
63959;SDS011;50136;51.374;0.096;2023-02-03T19:25:21;7.68;;;2.72;;
63959;SDS011;50136;51.374;0.096;2023-02-03T19:45:54;15.52;;;7.00;;
63959;SDS011;50136;51.374;0.096;2023-02-03T19:55:57;3.90;;;2.22;;
63959;SDS011;50136;51.374;0.096;2023-02-03T20:05:59;6.93;;;2.92;;
63959;SDS011;50136;51.374;0.096;2023-02-03T20:16:03;7.43;;;4.60;;
63959;SDS011;50136;51.374;0.096;2023-02-03T20:37:13;5.95;;;3.05;;
63959;SDS011;50136;51.374;0.096;2023-02-03T20:47:16;7.68;;;3.70;;
63959;SDS011;50136;51.374;0.096;2023-02-03T20:57:19;10.20;;;3.92;;
63959;SDS011;50136;51.374;0.096;2023-02-03T21:07:21;5.65;;;3.85;;
63959;SDS011;50136;51.374;0.096;2023-02-03T21:17:25;9.88;;;4.05;;
63959;SDS011;50136;51.374;0.096;2023-02-03T21:38:29;7.47;;;4.32;;
63959;SDS011;50136;51.374;0.096;2023-02-03T21:48:34;13.77;;;5.40;;
63959;SDS011;50136;51.374;0.096;2023-02-03T22:08:51;11.73;;;5.13;;
63959;SDS011;50136;51.374;0.096;2023-02-03T22:18:54;12.60;;;4.78;;
63959;SDS011;50136;51.374;0.096;2023-02-03T22:28:58;12.25;;;5.65;;
63959;SDS011;50136;51.374;0.096;2023-02-03T22:39:00;11.68;;;4.90;;
63959;SDS011;50136;51.374;0.096;2023-02-03T22:49:03;12.35;;;4.50;;
63959;SDS011;50136;51.374;0.096;2023-02-03T22:59:05;9.10;;;5.07;;
63959;SDS011;50136;51.374;0.096;2023-02-03T23:09:08;9.45;;;5.20;;
63959;SDS011;50136;51.374;0.096;2023-02-03T23:19:11;10.60;;;5.68;;
63959;SDS011;50136;51.374;0.096;2023-02-03T23:29:14;10.45;;;5.28;;
63959;SDS011;50136;51.374;0.096;2023-02-03T23:39:16;12.13;;;6.68;;
63959;SDS011;50136;51.374;0.096;2023-02-03T23:49:19;18.25;;;8.50;;
63959;SDS011;50136;51.374;0.096;2023-02-03T23:59:21;20.80;;;10.80;;
